sensor_id;sensor_type;location;lat;lon;timestamp;temperature;humidity
3492;DHT22;1760;52.480;13.422;2023-09-19T00:00:29;19.10;99.90
3492;DHT22;1760;52.480;13.422;2023-09-19T00:02:57;19.10;99.90
3492;DHT22;1760;52.480;13.422;2023-09-19T00:05:25;19.10;99.90
3492;DHT22;1760;52.480;13.422;2023-09-19T00:07:56;19.00;99.90
3492;DHT22;1760;52.480;13.422;2023-09-19T00:10:25;19.00;99.90
3492;DHT22;1760;52.480;13.422;2023-09-19T00:12:52;19.00;99.90
3492;DHT22;1760;52.480;13.422;2023-09-19T00:15:27;19.00;99.90
3492;DHT22;1760;52.480;13.422;2023-09-19T00:17:55;19.00;99.90
3492;DHT22;1760;52.480;13.422;2023-09-19T00:20:23;19.00;99.90
3492;DHT22;1760;52.480;13.422;2023-09-19T00:22:50;19.00;99.90
3492;DHT22;1760;52.480;13.422;2023-09-19T00:25:19;18.90;99.90
3492;DHT22;1760;52.480;13.422;2023-09-19T00:27:46;18.90;99.90
3492;DHT22;1760;52.480;13.422;2023-09-19T00:30:15;18.90;99.90
3492;DHT22;1760;52.480;13.422;2023-09-19T00:32:48;18.90;99.90
3492;DHT22;1760;52.480;13.422;2023-09-19T00:35:15;18.90;99.90
3492;DHT22;1760;52.480;13.422;2023-09-19T00:37:42;18.90;99.90
3492;DHT22;1760;52.480;13.422;2023-09-19T00:40:10;18.90;99.90
3492;DHT22;1760;52.480;13.422;2023-09-19T00:42:38;18.90;99.90
3492;DHT22;1760;52.480;13.422;2023-09-19T00:45:07;18.80;99.90
3492;DHT22;1760;52.480;13.422;2023-09-19T00:47:37;18.80;99.90
3492;DHT22;1760;52.480;13.422;2023-09-19T00:50:07;18.80;99.90
3492;DHT22;1760;52.480;13.422;2023-09-19T00:52:37;18.70;99.90
3492;DHT22;1760;52.480;13.422;2023-09-19T00:55:07;18.70;99.90
3492;DHT22;1760;52.480;13.422;2023-09-19T00:57:34;18.70;99.90
3492;DHT22;1760;52.480;13.422;2023-09-19T01:00:05;18.70;99.90
3492;DHT22;1760;52.480;13.422;2023-09-19T01:02:34;18.70;99.90
3492;DHT22;1760;52.480;13.422;2023-09-19T01:05:01;18.60;99.90
3492;DHT22;1760;52.480;13.422;2023-09-19T01:07:32;18.60;99.90
3492;DHT22;1760;52.480;13.422;2023-09-19T01:10:00;18.60;99.90
3492;DHT22;1760;52.480;13.422;2023-09-19T01:12:36;18.60;99.90
3492;DHT22;1760;52.480;13.422;2023-09-19T01:15:15;18.60;99.90
3492;DHT22;1760;52.480;13.422;2023-09-19T01:17:51;18.60;99.90
3492;DHT22;1760;52.480;13.422;2023-09-19T01:20:27;18.60;99.90
3492;DHT22;1760;52.480;13.422;2023-09-19T01:23:10;18.60;99.90
3492;DHT22;1760;52.480;13.422;2023-09-19T01:26:05;18.60;99.90
3492;DHT22;1760;52.480;13.422;2023-09-19T01:31:28;18.60;99.90
3492;DHT22;1760;52.480;13.422;2023-09-19T01:33:59;18.60;99.90
3492;DHT22;1760;52.480;13.422;2023-09-19T01:36:28;18.60;99.90
3492;DHT22;1760;52.480;13.422;2023-09-19T01:38:57;18.60;99.90
3492;DHT22;1760;52.480;13.422;2023-09-19T01:41:36;18.70;99.90
3492;DHT22;1760;52.480;13.422;2023-09-19T01:44:09;18.70;99.90
3492;DHT22;1760;52.480;13.422;2023-09-19T01:46:42;18.60;99.90
3492;DHT22;1760;52.480;13.422;2023-09-19T01:49:22;18.70;99.90
3492;DHT22;1760;52.480;13.422;2023-09-19T01:52:00;18.70;99.90
3492;DHT22;1760;52.480;13.422;2023-09-19T01:54:34;18.70;99.90
3492;DHT22;1760;52.480;13.422;2023-09-19T01:57:09;18.70;99.90
3492;DHT22;1760;52.480;13.422;2023-09-19T01:59:43;18.70;99.90
3492;DHT22;1760;52.480;13.422;2023-09-19T02:02:14;18.70;99.90
3492;DHT22;1760;52.480;13.422;2023-09-19T02:04:43;18.70;99.90
3492;DHT22;1760;52.480;13.422;2023-09-19T02:07:11;18.70;99.90
3492;DHT22;1760;52.480;13.422;2023-09-19T02:09:42;18.70;99.90
3492;DHT22;1760;52.480;13.422;2023-09-19T02:12:09;18.70;99.90
3492;DHT22;1760;52.480;13.422;2023-09-19T02:14:38;18.60;99.90
3492;DHT22;1760;52.480;13.422;2023-09-19T02:17:06;18.60;99.90
3492;DHT22;1760;52.480;13.422;2023-09-19T02:19:38;18.60;99.90
3492;DHT22;1760;52.480;13.422;2023-09-19T02:22:07;18.50;99.90
3492;DHT22;1760;52.480;13.422;2023-09-19T02:24:36;18.50;99.90
3492;DHT22;1760;52.480;13.422;2023-09-19T02:27:04;18.50;99.90
3492;DHT22;1760;52.480;13.422;2023-09-19T02:29:31;18.50;99.90
3492;DHT22;1760;52.480;13.422;2023-09-19T02:31:59;18.50;99.90
3492;DHT22;1760;52.480;13.422;2023-09-19T02:34:27;18.40;99.90
3492;DHT22;1760;52.480;13.422;2023-09-19T02:36:57;18.40;99.90
3492;DHT22;1760;52.480;13.422;2023-09-19T02:39:24;18.30;99.90
3492;DHT22;1760;52.480;13.422;2023-09-19T02:41:51;18.30;99.90
3492;DHT22;1760;52.480;13.422;2023-09-19T02:44:18;18.30;99.90
3492;DHT22;1760;52.480;13.422;2023-09-19T02:46:46;18.30;99.90
3492;DHT22;1760;52.480;13.422;2023-09-19T02:49:14;18.30;99.90
3492;DHT22;1760;52.480;13.422;2023-09-19T02:51:41;18.30;99.90
3492;DHT22;1760;52.480;13.422;2023-09-19T02:54:10;18.30;99.90
3492;DHT22;1760;52.480;13.422;2023-09-19T02:56:37;18.20;99.90
3492;DHT22;1760;52.480;13.422;2023-09-19T02:59:06;18.20;99.90
3492;DHT22;1760;52.480;13.422;2023-09-19T03:01:36;18.30;99.90
3492;DHT22;1760;52.480;13.422;2023-09-19T03:04:05;18.20;99.90
3492;DHT22;1760;52.480;13.422;2023-09-19T03:06:37;18.20;99.90
3492;DHT22;1760;52.480;13.422;2023-09-19T03:09:04;18.20;99.90
3492;DHT22;1760;52.480;13.422;2023-09-19T03:11:41;18.20;99.90
3492;DHT22;1760;52.480;13.422;2023-09-19T03:14:08;18.20;99.90
3492;DHT22;1760;52.480;13.422;2023-09-19T03:16:36;18.30;99.90
3492;DHT22;1760;52.480;13.422;2023-09-19T03:19:04;18.30;99.90
3492;DHT22;1760;52.480;13.422;2023-09-19T03:21:31;18.30;99.90
3492;DHT22;1760;52.480;13.422;2023-09-19T03:23:59;18.30;99.90
3492;DHT22;1760;52.480;13.422;2023-09-19T03:26:27;18.30;99.90
3492;DHT22;1760;52.480;13.422;2023-09-19T03:28:58;18.30;99.90
3492;DHT22;1760;52.480;13.422;2023-09-19T03:31:25;18.30;99.90
3492;DHT22;1760;52.480;13.422;2023-09-19T03:33:53;18.30;99.90
3492;DHT22;1760;52.480;13.422;2023-09-19T03:36:20;18.40;99.90
3492;DHT22;1760;52.480;13.422;2023-09-19T03:38:47;18.40;99.90
3492;DHT22;1760;52.480;13.422;2023-09-19T03:41:14;18.40;99.90
3492;DHT22;1760;52.480;13.422;2023-09-19T03:43:43;18.30;99.90
3492;DHT22;1760;52.480;13.422;2023-09-19T03:46:11;18.30;99.90
3492;DHT22;1760;52.480;13.422;2023-09-19T03:48:40;18.30;99.90
3492;DHT22;1760;52.480;13.422;2023-09-19T03:51:08;18.30;99.90
3492;DHT22;1760;52.480;13.422;2023-09-19T03:53:35;18.30;99.90
3492;DHT22;1760;52.480;13.422;2023-09-19T03:56:02;18.20;99.90
3492;DHT22;1760;52.480;13.422;2023-09-19T03:58:29;18.20;99.90
3492;DHT22;1760;52.480;13.422;2023-09-19T04:00:58;18.20;99.90
3492;DHT22;1760;52.480;13.422;2023-09-19T04:03:29;18.20;99.90
3492;DHT22;1760;52.480;13.422;2023-09-19T04:06:01;17.90;99.90
3492;DHT22;1760;52.480;13.422;2023-09-19T04:08:28;18.10;99.90
3492;DHT22;1760;52.480;13.422;2023-09-19T04:10:55;18.10;99.90
3492;DHT22;1760;52.480;13.422;2023-09-19T04:13:22;18.10;99.90
3492;DHT22;1760;52.480;13.422;2023-09-19T04:15:57;17.80;99.90
3492;DHT22;1760;52.480;13.422;2023-09-19T04:18:25;18.00;99.90
3492;DHT22;1760;52.480;13.422;2023-09-19T04:20:53;18.10;99.90
3492;DHT22;1760;52.480;13.422;2023-09-19T04:23:22;18.10;99.90
3492;DHT22;1760;52.480;13.422;2023-09-19T04:25:50;18.00;99.90
3492;DHT22;1760;52.480;13.422;2023-09-19T04:28:18;18.00;99.90
3492;DHT22;1760;52.480;13.422;2023-09-19T04:30:45;18.00;99.90
3492;DHT22;1760;52.480;13.422;2023-09-19T04:33:12;18.00;99.90
3492;DHT22;1760;52.480;13.422;2023-09-19T04:35:40;18.00;99.90
3492;DHT22;1760;52.480;13.422;2023-09-19T04:38:09;18.00;99.90
3492;DHT22;1760;52.480;13.422;2023-09-19T04:40:37;18.00;99.90
3492;DHT22;1760;52.480;13.422;2023-09-19T04:43:07;18.10;99.90
3492;DHT22;1760;52.480;13.422;2023-09-19T04:45:34;18.00;99.90
3492;DHT22;1760;52.480;13.422;2023-09-19T04:48:01;18.00;99.90
3492;DHT22;1760;52.480;13.422;2023-09-19T04:50:28;18.00;99.90
3492;DHT22;1760;52.480;13.422;2023-09-19T04:52:55;18.00;99.90
3492;DHT22;1760;52.480;13.422;2023-09-19T04:55:25;18.00;99.90
3492;DHT22;1760;52.480;13.422;2023-09-19T04:57:53;18.00;99.90
3492;DHT22;1760;52.480;13.422;2023-09-19T05:00:22;18.00;99.90
3492;DHT22;1760;52.480;13.422;2023-09-19T05:02:50;18.00;99.90
3492;DHT22;1760;52.480;13.422;2023-09-19T05:05:20;18.00;99.90
3492;DHT22;1760;52.480;13.422;2023-09-19T05:07:48;17.90;99.90
3492;DHT22;1760;52.480;13.422;2023-09-19T05:10:16;17.90;99.90
3492;DHT22;1760;52.480;13.422;2023-09-19T05:12:46;17.90;99.90
3492;DHT22;1760;52.480;13.422;2023-09-19T05:15:20;17.90;99.90
3492;DHT22;1760;52.480;13.422;2023-09-19T05:17:50;17.90;99.90
3492;DHT22;1760;52.480;13.422;2023-09-19T05:20:17;17.90;99.90
3492;DHT22;1760;52.480;13.422;2023-09-19T05:22:57;17.90;99.90
3492;DHT22;1760;52.480;13.422;2023-09-19T05:25:24;17.80;99.90
3492;DHT22;1760;52.480;13.422;2023-09-19T05:27:56;17.90;99.90
3492;DHT22;1760;52.480;13.422;2023-09-19T05:30:25;17.80;99.90
3492;DHT22;1760;52.480;13.422;2023-09-19T05:32:53;17.80;99.90
3492;DHT22;1760;52.480;13.422;2023-09-19T05:35:20;17.90;99.90
3492;DHT22;1760;52.480;13.422;2023-09-19T05:37:48;17.80;99.90
3492;DHT22;1760;52.480;13.422;2023-09-19T05:40:17;17.80;99.90
3492;DHT22;1760;52.480;13.422;2023-09-19T05:42:44;17.80;99.90
3492;DHT22;1760;52.480;13.422;2023-09-19T05:45:13;17.80;99.90
3492;DHT22;1760;52.480;13.422;2023-09-19T05:47:44;17.80;99.90
3492;DHT22;1760;52.480;13.422;2023-09-19T05:50:14;17.70;99.90
3492;DHT22;1760;52.480;13.422;2023-09-19T05:52:42;17.70;99.90
3492;DHT22;1760;52.480;13.422;2023-09-19T05:55:10;17.70;99.90
3492;DHT22;1760;52.480;13.422;2023-09-19T05:57:37;17.70;99.90
3492;DHT22;1760;52.480;13.422;2023-09-19T06:00:06;17.70;99.90
3492;DHT22;1760;52.480;13.422;2023-09-19T06:02:38;17.70;99.90
3492;DHT22;1760;52.480;13.422;2023-09-19T06:05:07;17.70;99.90
3492;DHT22;1760;52.480;13.422;2023-09-19T06:07:36;17.70;99.90
3492;DHT22;1760;52.480;13.422;2023-09-19T06:10:05;17.70;99.90
3492;DHT22;1760;52.480;13.422;2023-09-19T06:12:33;17.70;99.90
3492;DHT22;1760;52.480;13.422;2023-09-19T06:15:03;17.70;99.90
3492;DHT22;1760;52.480;13.422;2023-09-19T06:17:34;17.70;99.90
3492;DHT22;1760;52.480;13.422;2023-09-19T06:20:06;17.80;99.90
3492;DHT22;1760;52.480;13.422;2023-09-19T06:22:46;17.80;99.90
3492;DHT22;1760;52.480;13.422;2023-09-19T06:25:15;17.80;99.90
3492;DHT22;1760;52.480;13.422;2023-09-19T06:27:48;17.80;99.90
3492;DHT22;1760;52.480;13.422;2023-09-19T06:30:36;17.80;99.90
3492;DHT22;1760;52.480;13.422;2023-09-19T06:33:06;17.90;99.90
3492;DHT22;1760;52.480;13.422;2023-09-19T06:35:41;18.10;99.90
3492;DHT22;1760;52.480;13.422;2023-09-19T06:38:10;18.10;99.90
3492;DHT22;1760;52.480;13.422;2023-09-19T06:40:38;18.20;99.90
3492;DHT22;1760;52.480;13.422;2023-09-19T06:43:10;18.10;99.90
3492;DHT22;1760;52.480;13.422;2023-09-19T06:45:53;18.10;99.90
3492;DHT22;1760;52.480;13.422;2023-09-19T06:48:20;18.10;99.90
3492;DHT22;1760;52.480;13.422;2023-09-19T06:50:53;18.10;99.90
3492;DHT22;1760;52.480;13.422;2023-09-19T06:53:45;18.20;99.90
3492;DHT22;1760;52.480;13.422;2023-09-19T06:56:12;18.20;99.90
3492;DHT22;1760;52.480;13.422;2023-09-19T06:58:59;18.20;99.90
3492;DHT22;1760;52.480;13.422;2023-09-19T07:01:30;18.20;99.90
3492;DHT22;1760;52.480;13.422;2023-09-19T07:03:59;18.30;99.90
3492;DHT22;1760;52.480;13.422;2023-09-19T07:06:29;18.30;99.90
3492;DHT22;1760;52.480;13.422;2023-09-19T07:08:56;18.40;99.90
3492;DHT22;1760;52.480;13.422;2023-09-19T07:11:30;18.50;99.90
3492;DHT22;1760;52.480;13.422;2023-09-19T07:13:59;18.70;99.90
3492;DHT22;1760;52.480;13.422;2023-09-19T07:16:28;18.90;99.90
3492;DHT22;1760;52.480;13.422;2023-09-19T07:18:56;19.00;99.90
3492;DHT22;1760;52.480;13.422;2023-09-19T07:21:23;19.20;99.90
3492;DHT22;1760;52.480;13.422;2023-09-19T07:23:52;19.30;99.90
3492;DHT22;1760;52.480;13.422;2023-09-19T07:26:19;19.40;99.90
3492;DHT22;1760;52.480;13.422;2023-09-19T07:28:47;19.40;99.90
3492;DHT22;1760;52.480;13.422;2023-09-19T07:31:14;19.50;99.90
3492;DHT22;1760;52.480;13.422;2023-09-19T07:33:42;19.60;99.90
3492;DHT22;1760;52.480;13.422;2023-09-19T07:36:11;19.60;99.90
3492;DHT22;1760;52.480;13.422;2023-09-19T07:38:40;19.60;99.90
3492;DHT22;1760;52.480;13.422;2023-09-19T07:41:08;19.60;99.90
3492;DHT22;1760;52.480;13.422;2023-09-19T07:43:37;19.60;99.90
3492;DHT22;1760;52.480;13.422;2023-09-19T07:46:27;19.40;99.90
3492;DHT22;1760;52.480;13.422;2023-09-19T07:48:58;19.50;99.90
3492;DHT22;1760;52.480;13.422;2023-09-19T07:51:26;19.40;99.90
3492;DHT22;1760;52.480;13.422;2023-09-19T07:54:04;19.30;99.90
3492;DHT22;1760;52.480;13.422;2023-09-19T07:56:33;19.30;99.90
3492;DHT22;1760;52.480;13.422;2023-09-19T07:59:00;19.30;99.90
3492;DHT22;1760;52.480;13.422;2023-09-19T08:01:36;19.40;99.90
3492;DHT22;1760;52.480;13.422;2023-09-19T08:04:07;19.40;99.90
3492;DHT22;1760;52.480;13.422;2023-09-19T08:06:36;19.50;99.90
3492;DHT22;1760;52.480;13.422;2023-09-19T08:09:09;19.50;99.90
3492;DHT22;1760;52.480;13.422;2023-09-19T08:11:41;19.60;99.90
3492;DHT22;1760;52.480;13.422;2023-09-19T08:14:11;19.50;99.90
3492;DHT22;1760;52.480;13.422;2023-09-19T08:16:40;19.60;99.90
3492;DHT22;1760;52.480;13.422;2023-09-19T08:19:14;20.20;99.90
3492;DHT22;1760;52.480;13.422;2023-09-19T08:21:41;21.00;99.90
3492;DHT22;1760;52.480;13.422;2023-09-19T08:24:11;21.20;99.90
3492;DHT22;1760;52.480;13.422;2023-09-19T08:26:43;21.30;99.90
3492;DHT22;1760;52.480;13.422;2023-09-19T08:29:12;21.00;99.90
3492;DHT22;1760;52.480;13.422;2023-09-19T08:31:41;20.70;99.90
3492;DHT22;1760;52.480;13.422;2023-09-19T08:34:09;20.60;99.90
3492;DHT22;1760;52.480;13.422;2023-09-19T08:36:40;20.40;99.90
3492;DHT22;1760;52.480;13.422;2023-09-19T08:39:09;20.60;99.90
3492;DHT22;1760;52.480;13.422;2023-09-19T08:41:39;20.50;99.90
3492;DHT22;1760;52.480;13.422;2023-09-19T08:44:08;21.00;99.90
3492;DHT22;1760;52.480;13.422;2023-09-19T08:46:37;22.00;99.90
3492;DHT22;1760;52.480;13.422;2023-09-19T08:49:15;22.50;99.90
3492;DHT22;1760;52.480;13.422;2023-09-19T08:51:56;22.70;99.90
3492;DHT22;1760;52.480;13.422;2023-09-19T08:54:25;23.00;99.90
3492;DHT22;1760;52.480;13.422;2023-09-19T08:56:56;23.50;99.90
3492;DHT22;1760;52.480;13.422;2023-09-19T08:59:31;23.60;99.90
3492;DHT22;1760;52.480;13.422;2023-09-19T09:02:01;23.90;99.90
3492;DHT22;1760;52.480;13.422;2023-09-19T09:04:30;23.90;99.90
3492;DHT22;1760;52.480;13.422;2023-09-19T09:06:58;24.00;99.90
3492;DHT22;1760;52.480;13.422;2023-09-19T09:09:32;23.70;99.90
3492;DHT22;1760;52.480;13.422;2023-09-19T09:12:02;23.10;99.90
3492;DHT22;1760;52.480;13.422;2023-09-19T09:14:31;22.80;99.90
3492;DHT22;1760;52.480;13.422;2023-09-19T09:17:01;23.10;99.90
3492;DHT22;1760;52.480;13.422;2023-09-19T09:19:30;23.50;99.90
3492;DHT22;1760;52.480;13.422;2023-09-19T09:22:08;23.60;99.90
3492;DHT22;1760;52.480;13.422;2023-09-19T09:24:37;23.30;99.90
3492;DHT22;1760;52.480;13.422;2023-09-19T09:27:19;22.80;99.90
3492;DHT22;1760;52.480;13.422;2023-09-19T09:29:52;22.40;99.90
3492;DHT22;1760;52.480;13.422;2023-09-19T09:32:23;22.10;99.90
3492;DHT22;1760;52.480;13.422;2023-09-19T09:34:52;22.00;99.90
3492;DHT22;1760;52.480;13.422;2023-09-19T09:37:20;22.50;99.90
3492;DHT22;1760;52.480;13.422;2023-09-19T09:39:52;22.70;99.90
3492;DHT22;1760;52.480;13.422;2023-09-19T09:42:32;23.50;99.90
3492;DHT22;1760;52.480;13.422;2023-09-19T09:45:17;24.20;99.90
3492;DHT22;1760;52.480;13.422;2023-09-19T09:47:47;24.00;99.90
3492;DHT22;1760;52.480;13.422;2023-09-19T09:50:29;23.40;99.90
3492;DHT22;1760;52.480;13.422;2023-09-19T09:53:20;22.70;99.90
3492;DHT22;1760;52.480;13.422;2023-09-19T09:56:04;23.00;99.90
3492;DHT22;1760;52.480;13.422;2023-09-19T09:58:50;22.80;99.90
3492;DHT22;1760;52.480;13.422;2023-09-19T10:01:22;23.50;99.90
3492;DHT22;1760;52.480;13.422;2023-09-19T10:03:58;23.70;97.50
3492;DHT22;1760;52.480;13.422;2023-09-19T10:06:39;23.60;97.20
3492;DHT22;1760;52.480;13.422;2023-09-19T10:09:20;23.40;97.30
3492;DHT22;1760;52.480;13.422;2023-09-19T10:12:03;23.80;96.00
3492;DHT22;1760;52.480;13.422;2023-09-19T10:14:33;24.10;94.30
3492;DHT22;1760;52.480;13.422;2023-09-19T10:17:04;24.50;94.00
3492;DHT22;1760;52.480;13.422;2023-09-19T10:19:37;25.50;99.90
3492;DHT22;1760;52.480;13.422;2023-09-19T10:22:12;25.20;92.10
3492;DHT22;1760;52.480;13.422;2023-09-19T10:24:45;25.40;91.20
3492;DHT22;1760;52.480;13.422;2023-09-19T10:27:13;25.80;91.10
3492;DHT22;1760;52.480;13.422;2023-09-19T10:29:45;26.30;89.20
3492;DHT22;1760;52.480;13.422;2023-09-19T10:32:18;26.10;86.60
3492;DHT22;1760;52.480;13.422;2023-09-19T10:34:47;25.40;82.30
3492;DHT22;1760;52.480;13.422;2023-09-19T10:37:17;25.40;82.10
3492;DHT22;1760;52.480;13.422;2023-09-19T10:39:46;25.60;82.60
3492;DHT22;1760;52.480;13.422;2023-09-19T10:42:25;25.80;81.70
3492;DHT22;1760;52.480;13.422;2023-09-19T10:44:55;26.10;81.20
3492;DHT22;1760;52.480;13.422;2023-09-19T10:47:26;26.20;79.70
3492;DHT22;1760;52.480;13.422;2023-09-19T10:49:53;26.20;79.50
3492;DHT22;1760;52.480;13.422;2023-09-19T10:52:23;26.00;80.20
3492;DHT22;1760;52.480;13.422;2023-09-19T10:54:52;25.60;79.00
3492;DHT22;1760;52.480;13.422;2023-09-19T10:57:26;25.00;76.20
3492;DHT22;1760;52.480;13.422;2023-09-19T11:00:04;24.30;75.90
3492;DHT22;1760;52.480;13.422;2023-09-19T11:03:19;23.60;77.80
3492;DHT22;1760;52.480;13.422;2023-09-19T11:06:05;23.20;80.20
3492;DHT22;1760;52.480;13.422;2023-09-19T11:09:01;23.00;81.30
3492;DHT22;1760;52.480;13.422;2023-09-19T11:11:49;23.00;82.40
3492;DHT22;1760;52.480;13.422;2023-09-19T11:14:37;22.90;81.50
3492;DHT22;1760;52.480;13.422;2023-09-19T11:17:33;22.80;82.40
3492;DHT22;1760;52.480;13.422;2023-09-19T11:20:30;22.80;83.30
3492;DHT22;1760;52.480;13.422;2023-09-19T11:23:25;22.80;82.30
3492;DHT22;1760;52.480;13.422;2023-09-19T11:25:57;22.40;91.90
3492;DHT22;1760;52.480;13.422;2023-09-19T11:28:33;22.50;84.30
3492;DHT22;1760;52.480;13.422;2023-09-19T11:34:50;22.00;96.90
3492;DHT22;1760;52.480;13.422;2023-09-19T11:40:30;21.80;85.70
3492;DHT22;1760;52.480;13.422;2023-09-19T11:42:58;21.70;86.50
3492;DHT22;1760;52.480;13.422;2023-09-19T11:46:04;21.60;87.00
3492;DHT22;1760;52.480;13.422;2023-09-19T11:48:34;21.50;87.60
3492;DHT22;1760;52.480;13.422;2023-09-19T11:51:11;21.70;88.90
3492;DHT22;1760;52.480;13.422;2023-09-19T11:53:45;21.80;88.90
3492;DHT22;1760;52.480;13.422;2023-09-19T11:56:16;22.00;87.70
3492;DHT22;1760;52.480;13.422;2023-09-19T11:58:44;22.10;84.80
3492;DHT22;1760;52.480;13.422;2023-09-19T12:01:16;22.10;84.10
3492;DHT22;1760;52.480;13.422;2023-09-19T12:03:50;22.10;84.40
3492;DHT22;1760;52.480;13.422;2023-09-19T12:06:22;22.10;84.00
3492;DHT22;1760;52.480;13.422;2023-09-19T12:08:50;22.20;84.60
3492;DHT22;1760;52.480;13.422;2023-09-19T12:11:21;22.20;82.70
3492;DHT22;1760;52.480;13.422;2023-09-19T12:13:50;22.20;82.30
3492;DHT22;1760;52.480;13.422;2023-09-19T12:16:20;22.20;82.10
3492;DHT22;1760;52.480;13.422;2023-09-19T12:18:49;22.20;82.00
3492;DHT22;1760;52.480;13.422;2023-09-19T12:21:29;22.10;81.50
3492;DHT22;1760;52.480;13.422;2023-09-19T12:24:12;22.10;82.70
3492;DHT22;1760;52.480;13.422;2023-09-19T12:26:47;22.10;83.10
3492;DHT22;1760;52.480;13.422;2023-09-19T12:29:19;22.00;82.30
3492;DHT22;1760;52.480;13.422;2023-09-19T12:31:53;21.90;81.90
3492;DHT22;1760;52.480;13.422;2023-09-19T12:34:24;22.00;81.90
3492;DHT22;1760;52.480;13.422;2023-09-19T12:37:10;21.90;81.70
3492;DHT22;1760;52.480;13.422;2023-09-19T12:39:47;22.00;81.30
3492;DHT22;1760;52.480;13.422;2023-09-19T12:42:20;22.00;81.10
3492;DHT22;1760;52.480;13.422;2023-09-19T12:44:56;22.20;80.90
3492;DHT22;1760;52.480;13.422;2023-09-19T12:47:25;22.20;80.40
3492;DHT22;1760;52.480;13.422;2023-09-19T12:50:22;22.20;79.80
3492;DHT22;1760;52.480;13.422;2023-09-19T12:52:56;22.20;80.50
3492;DHT22;1760;52.480;13.422;2023-09-19T12:55:27;22.20;80.50
3492;DHT22;1760;52.480;13.422;2023-09-19T12:58:08;22.30;80.30
3492;DHT22;1760;52.480;13.422;2023-09-19T13:00:37;22.20;79.60
3492;DHT22;1760;52.480;13.422;2023-09-19T13:03:18;22.10;79.80
3492;DHT22;1760;52.480;13.422;2023-09-19T13:05:52;22.00;81.50
3492;DHT22;1760;52.480;13.422;2023-09-19T13:08:24;22.10;81.60
3492;DHT22;1760;52.480;13.422;2023-09-19T13:11:09;22.20;81.60
3492;DHT22;1760;52.480;13.422;2023-09-19T13:13:39;22.20;81.90
3492;DHT22;1760;52.480;13.422;2023-09-19T13:16:10;22.20;95.10
3492;DHT22;1760;52.480;13.422;2023-09-19T13:18:44;22.20;82.00
3492;DHT22;1760;52.480;13.422;2023-09-19T13:21:13;22.20;82.70
3492;DHT22;1760;52.480;13.422;2023-09-19T13:23:55;22.00;82.60
3492;DHT22;1760;52.480;13.422;2023-09-19T13:26:24;21.90;82.50
3492;DHT22;1760;52.480;13.422;2023-09-19T13:28:52;21.80;81.90
3492;DHT22;1760;52.480;13.422;2023-09-19T13:31:19;21.80;81.20
3492;DHT22;1760;52.480;13.422;2023-09-19T13:33:48;21.80;81.50
3492;DHT22;1760;52.480;13.422;2023-09-19T13:36:16;21.70;81.90
3492;DHT22;1760;52.480;13.422;2023-09-19T13:38:46;21.60;82.90
3492;DHT22;1760;52.480;13.422;2023-09-19T13:41:16;21.50;82.70
3492;DHT22;1760;52.480;13.422;2023-09-19T13:43:43;21.40;83.70
3492;DHT22;1760;52.480;13.422;2023-09-19T13:46:14;21.40;83.60
3492;DHT22;1760;52.480;13.422;2023-09-19T13:48:42;21.30;84.50
3492;DHT22;1760;52.480;13.422;2023-09-19T13:51:09;21.30;84.50
3492;DHT22;1760;52.480;13.422;2023-09-19T13:53:37;21.30;85.40
3492;DHT22;1760;52.480;13.422;2023-09-19T13:56:10;21.20;98.40
3492;DHT22;1760;52.480;13.422;2023-09-19T13:58:39;21.30;85.00
3492;DHT22;1760;52.480;13.422;2023-09-19T14:01:07;21.30;84.30
3492;DHT22;1760;52.480;13.422;2023-09-19T14:03:38;21.30;83.90
3492;DHT22;1760;52.480;13.422;2023-09-19T14:06:06;21.10;97.50
3492;DHT22;1760;52.480;13.422;2023-09-19T14:08:33;21.30;84.20
3492;DHT22;1760;52.480;13.422;2023-09-19T14:11:06;21.30;84.20
3492;DHT22;1760;52.480;13.422;2023-09-19T14:13:34;21.50;83.90
3492;DHT22;1760;52.480;13.422;2023-09-19T14:16:05;21.60;96.40
3492;DHT22;1760;52.480;13.422;2023-09-19T14:18:35;21.50;83.80
3492;DHT22;1760;52.480;13.422;2023-09-19T14:21:03;21.50;84.70
3492;DHT22;1760;52.480;13.422;2023-09-19T14:23:35;21.60;83.70
3492;DHT22;1760;52.480;13.422;2023-09-19T14:26:02;21.60;96.80
3492;DHT22;1760;52.480;13.422;2023-09-19T14:28:30;21.50;83.50
3492;DHT22;1760;52.480;13.422;2023-09-19T14:31:06;21.50;84.20
3492;DHT22;1760;52.480;13.422;2023-09-19T14:33:33;21.50;85.10
3492;DHT22;1760;52.480;13.422;2023-09-19T14:36:04;21.40;98.30
3492;DHT22;1760;52.480;13.422;2023-09-19T14:38:34;21.60;85.10
3492;DHT22;1760;52.480;13.422;2023-09-19T14:41:02;21.60;86.50
3492;DHT22;1760;52.480;13.422;2023-09-19T14:43:30;21.60;86.10
3492;DHT22;1760;52.480;13.422;2023-09-19T14:46:02;21.50;96.40
3492;DHT22;1760;52.480;13.422;2023-09-19T14:48:35;21.70;85.60
3492;DHT22;1760;52.480;13.422;2023-09-19T14:51:02;21.60;85.30
3492;DHT22;1760;52.480;13.422;2023-09-19T14:53:30;21.60;85.90
3492;DHT22;1760;52.480;13.422;2023-09-19T14:55:59;21.40;93.90
3492;DHT22;1760;52.480;13.422;2023-09-19T14:58:26;21.60;83.80
3492;DHT22;1760;52.480;13.422;2023-09-19T15:01:03;21.40;84.40
3492;DHT22;1760;52.480;13.422;2023-09-19T15:03:31;21.30;83.80
3492;DHT22;1760;52.480;13.422;2023-09-19T15:06:02;21.30;94.10
3492;DHT22;1760;52.480;13.422;2023-09-19T15:08:30;21.30;84.40
3492;DHT22;1760;52.480;13.422;2023-09-19T15:10:58;21.20;84.00
3492;DHT22;1760;52.480;13.422;2023-09-19T15:13:29;21.30;84.50
3492;DHT22;1760;52.480;13.422;2023-09-19T15:16:01;21.30;96.70
3492;DHT22;1760;52.480;13.422;2023-09-19T15:18:29;21.30;83.10
3492;DHT22;1760;52.480;13.422;2023-09-19T15:20:57;21.30;83.80
3492;DHT22;1760;52.480;13.422;2023-09-19T15:23:26;21.30;84.40
3492;DHT22;1760;52.480;13.422;2023-09-19T15:25:55;21.10;97.40
3492;DHT22;1760;52.480;13.422;2023-09-19T15:28:22;21.30;84.90
3492;DHT22;1760;52.480;13.422;2023-09-19T15:30:56;21.40;84.40
3492;DHT22;1760;52.480;13.422;2023-09-19T15:33:25;21.30;85.20
3492;DHT22;1760;52.480;13.422;2023-09-19T15:36:01;21.00;94.20
3492;DHT22;1760;52.480;13.422;2023-09-19T15:38:50;21.20;85.00
3492;DHT22;1760;52.480;13.422;2023-09-19T15:41:23;21.20;85.30
3492;DHT22;1760;52.480;13.422;2023-09-19T15:43:53;21.30;85.90
3492;DHT22;1760;52.480;13.422;2023-09-19T15:46:23;21.30;86.10
3492;DHT22;1760;52.480;13.422;2023-09-19T15:48:52;21.30;86.30
3492;DHT22;1760;52.480;13.422;2023-09-19T15:51:20;21.30;86.70
3492;DHT22;1760;52.480;13.422;2023-09-19T15:53:52;21.20;86.60
3492;DHT22;1760;52.480;13.422;2023-09-19T15:56:23;21.30;86.80
3492;DHT22;1760;52.480;13.422;2023-09-19T15:58:55;21.20;87.20
3492;DHT22;1760;52.480;13.422;2023-09-19T16:01:22;21.20;87.30
3492;DHT22;1760;52.480;13.422;2023-09-19T16:03:50;21.20;87.50
3492;DHT22;1760;52.480;13.422;2023-09-19T16:06:25;21.20;88.00
3492;DHT22;1760;52.480;13.422;2023-09-19T16:09:09;21.10;89.20
3492;DHT22;1760;52.480;13.422;2023-09-19T16:11:38;21.10;90.00
3492;DHT22;1760;52.480;13.422;2023-09-19T16:14:06;21.10;89.20
3492;DHT22;1760;52.480;13.422;2023-09-19T16:16:35;21.00;88.70
3492;DHT22;1760;52.480;13.422;2023-09-19T16:19:05;20.90;88.90
3492;DHT22;1760;52.480;13.422;2023-09-19T16:21:37;20.90;89.20